Time;durP1;ratioP1;P1;durP2;ratioP2;P2;SDS_P1;SDS_P2;PMS_P1;PMS_P2;Temp;Humidity;BMP_temperature;BMP_pressure;BME280_temperature;BME280_humidity;BME280_pressure;Samples;Min_cycle;Max_cycle;Signal;HPM_P1;HPM_P2
2021/06/24 00:00:56;;;;;;;25.45;11.45;;;;;;;25.83;77.92;100524.25;5031200;28;20021;-77
2021/06/24 00:03:27;;;;;;;19.95;10.90;;;;;;;25.72;78.23;100513.97;5031880;28;20036;-76
2021/06/24 00:05:54;;;;;;;27.20;11.60;;;;;;;25.63;78.64;100501.88;5031386;28;20498;-77
2021/06/24 00:08:20;;;;;;;20.73;11.90;;;;;;;25.50;79.31;100519.78;5030739;28;20490;-78
2021/06/24 00:10:46;;;;;;;28.52;12.02;;;;;;;24.62;84.57;100549.84;5031230;28;20025;-81
2021/06/24 00:13:13;;;;;;;19.52;12.07;;;;;;;24.53;85.90;100550.91;5030775;28;20029;-78
2021/06/24 00:15:39;;;;;;;18.50;11.52;;;;;;;24.64;84.11;100511.97;5031653;28;20052;-79
2021/06/24 00:18:07;;;;;;;19.30;11.00;;;;;;;24.91;84.01;100530.81;5031466;28;20026;-82
2021/06/24 00:20:33;;;;;;;21.42;11.18;;;;;;;24.98;83.82;100527.09;5028154;28;20036;-78
2021/06/24 00:22:58;;;;;;;28.45;13.25;;;;;;;24.98;82.09;100535.03;5031297;28;20159;-78
2021/06/24 00:25:24;;;;;;;25.55;13.77;;;;;;;24.92;82.62;100516.69;5030886;28;20108;-79
2021/06/24 00:27:49;;;;;;;22.63;12.45;;;;;;;24.89;82.16;100519.41;5030921;28;20391;-78
2021/06/24 00:30:16;;;;;;;21.17;13.50;;;;;;;25.03;81.96;100550.78;5031115;28;20032;-78
2021/06/24 00:33:01;;;;;;;29.60;13.43;;;;;;;24.86;82.33;100530.00;4989480;28;20066;-78
2021/06/24 00:35:27;;;;;;;21.30;10.55;;;;;;;24.57;84.53;100530.59;4989391;28;20496;-77
2021/06/24 00:37:52;;;;;;;14.30;10.48;;;;;;;24.28;85.65;100547.88;4989463;28;20034;-77
2021/06/24 00:40:18;;;;;;;19.67;10.57;;;;;;;23.94;87.00;100530.00;4989601;28;20019;-79
2021/06/24 00:42:44;;;;;;;16.60;9.73;;;;;;;23.49;88.50;100499.09;4950740;28;20043;-79
2021/06/24 00:45:11;;;;;;;19.33;10.48;;;;;;;23.93;87.98;100521.22;4950966;29;20046;-78
2021/06/24 00:47:37;;;;;;;13.50;10.75;;;;;;;24.22;86.78;100512.81;4950768;28;20035;-79
2021/06/24 00:50:05;;;;;;;15.00;9.80;;;;;;;24.13;86.62;100523.50;4953996;29;20027;-80
2021/06/24 00:52:31;;;;;;;20.17;11.27;;;;;;;23.88;87.44;100521.28;4954742;29;20650;-78
2021/06/24 00:54:56;;;;;;;19.05;10.35;;;;;;;23.75;87.63;100531.16;4954529;28;20105;-80
2021/06/24 00:57:23;;;;;;;18.17;10.45;;;;;;;23.58;88.86;100544.63;4954776;28;20145;-78
2021/06/24 00:59:49;;;;;;;18.92;10.35;;;;;;;23.64;88.30;100540.13;4954515;29;20490;-79
2021/06/24 01:02:14;;;;;;;15.48;11.05;;;;;;;23.48;88.64;100550.03;4954854;29;20053;-80
2021/06/24 01:04:40;;;;;;;16.33;10.50;;;;;;;23.43;88.63;100537.81;4954643;29;20067;-78
2021/06/24 01:07:06;;;;;;;16.25;10.48;;;;;;;23.47;89.37;100543.06;4938424;29;20058;-76
2021/06/24 01:09:33;;;;;;;14.65;10.95;;;;;;;23.31;88.75;100524.81;4958687;28;20122;-77
2021/06/24 01:12:02;;;;;;;17.77;11.23;;;;;;;23.41;88.37;100518.53;4993291;28;20086;-78
2021/06/24 01:14:28;;;;;;;16.33;9.93;;;;;;;23.73;87.04;100543.50;5027004;28;20041;-77
2021/06/24 01:16:53;;;;;;;14.40;10.55;;;;;;;23.56;88.24;100551.69;5034445;28;20017;-78
2021/06/24 01:19:19;;;;;;;19.02;11.45;;;;;;;23.53;88.75;100548.22;5034683;28;20128;-79
2021/06/24 01:21:46;;;;;;;14.52;10.65;;;;;;;23.42;89.39;100546.59;5034614;28;20407;-78
2021/06/24 01:24:11;;;;;;;15.65;11.57;;;;;;;23.45;89.36;100550.09;5033782;28;20036;-78
2021/06/24 01:26:40;;;;;;;17.85;11.55;;;;;;;23.04;92.04;100547.13;5034533;28;20033;-79
2021/06/24 01:29:05;;;;;;;16.15;11.27;;;;;;;22.61;94.47;100524.88;5016573;28;20013;-77
2021/06/24 01:31:31;;;;;;;13.88;12.25;;;;;;;22.50;95.66;100503.06;5034488;28;20029;-77
2021/06/24 01:33:57;;;;;;;13.82;11.48;;;;;;;22.62;95.74;100503.78;5033926;28;20029;-77
2021/06/24 01:36:23;;;;;;;21.98;12.98;;;;;;;22.80;95.26;100490.41;5034361;28;20448;-76
2021/06/24 01:38:48;;;;;;;17.58;10.77;;;;;;;23.15;93.51;100503.06;5034326;28;20021;-78
2021/06/24 01:41:15;;;;;;;20.80;11.70;;;;;;;23.34;91.67;100495.81;5016139;28;20464;-77
2021/06/24 01:43:42;;;;;;;15.50;10.35;;;;;;;23.52;91.25;100496.41;5033923;28;20029;-79
2021/06/24 01:46:07;;;;;;;14.73;11.55;;;;;;;23.52;90.63;100494.63;5033699;28;20018;-78
2021/06/24 01:48:33;;;;;;;19.42;11.93;;;;;;;23.38;90.49;100481.69;5033898;28;20021;-75
2021/06/24 01:51:00;;;;;;;21.15;12.13;;;;;;;23.58;89.87;100505.09;5015157;28;20053;-77
2021/06/24 01:53:26;;;;;;;15.95;11.82;;;;;;;23.70;88.99;100511.03;5016420;28;20459;-79
2021/06/24 01:55:52;;;;;;;17.15;11.30;;;;;;;23.80;88.26;100502.09;5033823;28;20025;-82
2021/06/24 01:58:23;;;;;;;19.17;11.43;;;;;;;23.73;88.04;100496.03;5033761;28;20018;-79
2021/06/24 02:00:51;;;;;;;17.63;11.38;;;;;;;23.59;88.48;100501.56;5033960;28;20478;-78
2021/06/24 02:03:17;;;;;;;25.27;12.40;;;;;;;23.43;88.95;100506.19;5033757;28;20025;-79
2021/06/24 02:05:44;;;;;;;22.52;12.40;;;;;;;23.40;89.05;100502.75;5033671;28;20071;-78
2021/06/24 02:08:21;;;;;;;24.13;12.02;;;;;;;23.49;88.71;100492.06;5033640;28;20116;-79
2021/06/24 02:10:48;;;;;;;23.20;11.57;;;;;;;23.23;88.06;100458.25;5030419;28;20046;-79
2021/06/24 02:13:14;;;;;;;17.08;12.05;;;;;;;23.11;89.70;100493.50;5015934;28;20067;-78
2021/06/24 02:15:41;;;;;;;16.10;12.32;;;;;;;23.16;89.71;100489.06;5033254;28;20475;-77
2021/06/24 02:18:06;;;;;;;19.70;11.60;;;;;;;23.19;88.65;100474.97;5032857;28;20104;-77
2021/06/24 02:20:32;;;;;;;15.68;11.65;;;;;;;22.87;88.90;100468.41;5033506;28;20109;-78
2021/06/24 02:22:58;;;;;;;16.95;12.50;;;;;;;22.52;90.83;100454.81;5033239;28;20472;-77
2021/06/24 02:25:23;;;;;;;16.20;12.50;;;;;;;22.61;91.13;100490.66;5033315;28;20033;-77
2021/06/24 02:27:49;;;;;;;24.60;13.13;;;;;;;22.70;91.16;100487.88;5033456;28;20014;-77
2021/06/24 02:30:16;;;;;;;21.88;11.90;;;;;;;22.90;90.09;100492.91;5033039;28;20064;-77
2021/06/24 02:32:42;;;;;;;19.40;12.13;;;;;;;22.92;88.99;100453.41;5033113;28;20028;-78
2021/06/24 02:35:09;;;;;;;22.15;11.70;;;;;;;23.21;89.23;100475.81;5033112;28;20021;-78
2021/06/24 02:37:35;;;;;;;16.77;10.65;;;;;;;23.34;89.25;100485.28;5033180;28;20445;-76
2021/06/24 02:40:01;;;;;;;20.52;11.90;;;;;;;23.48;88.85;100477.16;5033463;28;20025;-77
2021/06/24 02:42:26;;;;;;;19.23;12.05;;;;;;;23.29;89.29;100483.59;5015541;28;20036;-78
2021/06/24 02:44:52;;;;;;;16.48;11.70;;;;;;;23.20;88.81;100463.53;5033099;28;20579;-78
2021/06/24 02:47:17;;;;;;;18.45;11.45;;;;;;;23.47;87.93;100493.84;5032801;28;20026;-78
2021/06/24 02:49:43;;;;;;;16.13;11.40;;;;;;;23.65;87.13;100491.81;5033362;28;20104;-79
2021/06/24 02:52:09;;;;;;;22.70;12.00;;;;;;;23.24;87.75;100466.13;5033090;28;20048;-78
2021/06/24 02:54:34;;;;;;;25.17;11.15;;;;;;;23.44;88.04;100493.91;5032611;28;20025;-78
2021/06/24 02:57:00;;;;;;;15.88;11.50;;;;;;;23.52;88.14;100496.41;5032703;28;20024;-78
2021/06/24 02:59:26;;;;;;;17.90;11.60;;;;;;;23.30;87.80;100482.72;5032390;28;20542;-81
2021/06/24 03:01:52;;;;;;;21.02;10.98;;;;;;;23.22;87.25;100490.75;5032398;28;20029;-78
2021/06/24 03:04:22;;;;;;;14.32;11.10;;;;;;;23.32;86.98;100473.03;5032856;28;20033;-78
2021/06/24 03:06:49;;;;;;;19.45;10.98;;;;;;;23.62;86.75;100505.91;5032165;28;20031;-75
2021/06/24 03:09:15;;;;;;;21.92;12.18;;;;;;;23.32;86.68;100471.25;5032463;28;20553;-77
2021/06/24 03:11:41;;;;;;;29.30;11.85;;;;;;;23.26;87.10;100501.22;5030430;28;20435;-81
2021/06/24 03:14:06;;;;;;;24.83;13.43;;;;;;;23.06;88.79;100503.22;5032066;28;20116;-79
2021/06/24 03:16:32;;;;;;;24.77;12.95;;;;;;;23.12;88.54;100494.38;5014983;28;20116;-78
2021/06/24 03:18:57;;;;;;;17.52;12.02;;;;;;;23.32;88.13;100513.41;5012833;28;20055;-77
2021/06/24 03:21:23;;;;;;;23.58;12.70;;;;;;;23.40;88.00;100519.44;4997437;28;20022;-78
2021/06/24 03:23:49;;;;;;;15.77;12.18;;;;;;;23.01;88.63;100476.09;5032655;28;20120;-77
2021/06/24 03:26:14;;;;;;;19.63;12.75;;;;;;;23.08;89.73;100510.19;5032527;28;20448;-78
2021/06/24 03:28:40;;;;;;;16.95;11.48;;;;;;;23.07;90.25;100497.06;5032408;28;20018;-76
2021/06/24 03:31:05;;;;;;;19.20;12.35;;;;;;;23.06;91.08;100519.88;5032107;28;20445;-77
2021/06/24 03:33:31;;;;;;;18.65;11.48;;;;;;;23.14;90.66;100505.75;5028117;28;20032;-77
2021/06/24 03:35:56;;;;;;;19.00;12.35;;;;;;;23.30;90.39;100498.50;5031911;28;20029;-75
2021/06/24 03:38:22;;;;;;;18.80;12.38;;;;;;;23.27;90.29;100504.69;5032205;28;20021;-78
2021/06/24 03:40:47;;;;;;;19.55;12.15;;;;;;;23.32;89.78;100518.66;5032264;28;20510;-80
2021/06/24 03:43:13;;;;;;;20.63;12.52;;;;;;;23.28;89.43;100506.44;5031962;28;20033;-78
2021/06/24 03:45:39;;;;;;;18.85;12.65;;;;;;;23.31;89.07;100509.03;5031715;28;20467;-81
2021/06/24 03:48:06;;;;;;;17.50;12.43;;;;;;;23.46;88.53;100514.97;5032151;28;20035;-80
2021/06/24 03:50:33;;;;;;;24.73;12.65;;;;;;;23.28;87.75;100480.09;5032160;28;20087;-75
2021/06/24 03:52:58;;;;;;;23.90;11.82;;;;;;;23.43;88.07;100527.28;5032019;28;20376;-77
2021/06/24 03:55:45;;;;;;;21.20;12.38;;;;;;;23.45;88.03;100529.88;5031786;28;20033;-82
2021/06/24 03:58:12;;;;;;;19.52;12.55;;;;;;;23.53;88.27;100522.75;5031211;28;20060;-82
2021/06/24 04:00:40;;;;;;;21.38;12.32;;;;;;;23.56;87.21;100525.34;5031693;28;20460;-77
2021/06/24 04:03:06;;;;;;;23.05;12.07;;;;;;;23.44;87.78;100530.81;5031737;28;20030;-76
2021/06/24 04:05:32;;;;;;;22.80;11.73;;;;;;;23.40;88.05;100529.09;5031664;28;20036;-76
2021/06/24 04:07:59;;;;;;;14.88;12.02;;;;;;;23.06;88.94;100497.97;5013854;28;20033;-76
2021/06/24 04:10:25;;;;;;;23.90;13.27;;;;;;;23.24;89.15;100531.97;5031132;28;20496;-76
2021/06/24 04:12:51;;;;;;;18.77;12.65;;;;;;;23.34;88.70;100535.34;5013588;28;20091;-80
2021/06/24 04:15:17;;;;;;;25.35;13.20;;;;;;;23.47;88.09;100541.28;5031677;28;20455;-81
2021/06/24 04:17:42;;;;;;;20.48;12.52;;;;;;;23.42;88.69;100543.97;5031545;28;20468;-78
2021/06/24 04:20:08;;;;;;;19.05;12.10;;;;;;;23.45;88.95;100531.66;5031531;28;20072;-77
2021/06/24 04:22:33;;;;;;;21.85;12.32;;;;;;;23.57;87.78;100550.78;5031257;28;20083;-77
2021/06/24 04:24:59;;;;;;;17.50;12.98;;;;;;;23.58;88.38;100549.88;5030941;28;20026;-77
2021/06/24 04:27:24;;;;;;;21.10;13.57;;;;;;;23.27;90.38;100531.03;5031478;28;20410;-75
2021/06/24 04:29:50;;;;;;;18.48;13.70;;;;;;;23.34;89.66;100530.06;5031434;28;20078;-79
2021/06/24 04:32:15;;;;;;;17.73;12.75;;;;;;;23.45;89.25;100535.16;5031482;28;20056;-81
2021/06/24 04:34:41;;;;;;;22.35;13.32;;;;;;;23.28;90.23;100545.97;5031505;28;20533;-82
2021/06/24 04:37:06;;;;;;;18.17;11.90;;;;;;;23.07;92.56;100555.00;5031453;28;20021;-79
2021/06/24 04:39:32;;;;;;;22.55;14.15;;;;;;;22.76;93.54;100529.91;5031441;28;20025;-80
2021/06/24 04:41:57;;;;;;;22.73;12.73;;;;;;;22.62;95.42;100545.03;5031241;28;20037;-78
2021/06/24 04:44:22;;;;;;;19.20;13.85;;;;;;;22.68;96.32;100547.59;5013682;28;20044;-74
2021/06/24 04:46:48;;;;;;;21.65;14.00;;;;;;;22.87;95.70;100564.00;5031339;28;20017;-77
2021/06/24 04:49:13;;;;;;;19.38;12.85;;;;;;;23.12;94.71;100566.34;5031375;28;20472;-79
2021/06/24 04:51:39;;;;;;;23.05;14.00;;;;;;;23.09;94.62;100575.16;5031244;28;20026;-78
2021/06/24 04:54:04;;;;;;;20.48;13.15;;;;;;;23.26;93.39;100574.06;5030984;28;20459;-77
2021/06/24 04:56:30;;;;;;;21.25;13.90;;;;;;;23.43;92.43;100565.94;5031138;28;20026;-76
2021/06/24 04:58:55;;;;;;;21.20;13.50;;;;;;;23.55;91.72;100565.75;5031495;28;20030;-74
2021/06/24 05:01:21;;;;;;;23.60;13.75;;;;;;;23.27;92.03;100520.50;5031306;28;20104;-77
2021/06/24 05:03:46;;;;;;;25.50;13.88;;;;;;;23.63;91.94;100563.00;5031067;28;20025;-78
2021/06/24 05:06:12;;;;;;;22.90;13.52;;;;;;;23.63;91.55;100539.28;5031205;28;20033;-80
2021/06/24 05:08:38;;;;;;;20.85;13.55;;;;;;;23.72;91.46;100556.72;5030867;28;20087;-77
2021/06/24 05:11:04;;;;;;;27.63;15.70;;;;;;;23.65;92.56;100540.13;5030888;28;20017;-76
2021/06/24 05:13:30;;;;;;;15.88;13.40;;;;;;;23.77;91.96;100554.84;5031098;28;20025;-80
2021/06/24 05:15:56;;;;;;;24.02;14.13;;;;;;;23.83;91.92;100553.91;5031216;28;20056;-78
2021/06/24 05:18:22;;;;;;;20.92;14.43;;;;;;;24.05;91.46;100564.97;5031029;28;20029;-80
2021/06/24 05:20:47;;;;;;;18.10;14.05;;;;;;;24.12;91.60;100563.09;5031253;28;20037;-80
2021/06/24 05:23:15;;;;;;;21.52;14.18;;;;;;;23.95;90.95;100518.56;5031006;28;20092;-82
2021/06/24 05:25:42;;;;;;;17.92;12.85;;;;;;;24.27;90.33;100554.91;5030813;28;20057;-76
2021/06/24 05:28:07;;;;;;;24.15;13.73;;;;;;;24.46;90.46;100570.38;5031243;28;20025;-79
2021/06/24 05:30:34;;;;;;;21.80;13.18;;;;;;;24.49;89.60;100579.13;5030992;28;20460;-79
2021/06/24 05:32:59;;;;;;;20.45;14.00;;;;;;;24.39;90.80;100557.31;5030822;28;20026;-79
2021/06/24 05:35:24;;;;;;;19.88;13.98;;;;;;;24.59;90.29;100571.91;4998290;28;20026;-81
2021/06/24 05:37:50;;;;;;;22.98;14.90;;;;;;;24.68;91.63;100571.75;5034592;28;20070;-79
2021/06/24 05:40:16;;;;;;;18.20;13.30;;;;;;;24.59;90.32;100545.50;5034341;28;20024;-82
2021/06/24 05:42:41;;;;;;;19.15;13.40;;;;;;;24.83;89.01;100575.84;5034466;28;20025;-80
2021/06/24 05:45:07;;;;;;;21.65;12.93;;;;;;;24.90;88.17;100581.88;5034538;28;20116;-81
2021/06/24 05:47:34;;;;;;;22.45;13.38;;;;;;;24.81;86.92;100568.84;5034381;28;20026;-78
2021/06/24 05:50:00;;;;;;;16.08;13.55;;;;;;;24.94;87.44;100569.47;5034133;28;20029;-78
2021/06/24 05:52:25;;;;;;;23.50;13.88;;;;;;;25.04;88.16;100576.31;5033873;28;20033;-80
2021/06/24 05:54:51;;;;;;;25.58;14.73;;;;;;;25.21;89.05;100581.22;5033925;28;20033;-77
2021/06/24 05:57:16;;;;;;;21.20;14.15;;;;;;;25.34;89.54;100590.59;5034419;28;20029;-78
2021/06/24 05:59:45;;;;;;;20.20;13.02;;;;;;;25.34;87.30;100563.31;5034171;28;20025;-76
2021/06/24 06:02:10;;;;;;;17.58;12.38;;;;;;;25.54;87.40;100591.09;5033947;28;20156;-78
2021/06/24 06:04:36;;;;;;;25.17;13.23;;;;;;;25.45;87.18;100557.81;5033993;28;20064;-78
2021/06/24 06:07:01;;;;;;;16.80;12.25;;;;;;;25.73;85.67;100604.75;5033902;28;20025;-77
2021/06/24 06:09:28;;;;;;;19.58;11.60;;;;;;;25.80;83.54;100596.63;5033970;28;20049;-78
2021/06/24 06:11:54;;;;;;;16.67;10.77;;;;;;;25.82;82.15;100602.75;5034055;28;20439;-79
2021/06/24 06:14:20;;;;;;;18.85;11.40;;;;;;;25.80;82.35;100585.19;5033871;28;20052;-83
2021/06/24 06:16:45;;;;;;;16.95;10.57;;;;;;;25.89;82.59;100581.44;5034018;28;20037;-79
2021/06/24 06:19:12;;;;;;;16.55;11.02;;;;;;;25.99;81.79;100602.34;5033872;28;20028;-78
2021/06/24 06:21:38;;;;;;;21.80;10.32;;;;;;;26.24;79.75;100612.31;5033716;28;20025;-80
2021/06/24 06:24:04;;;;;;;17.95;10.75;;;;;;;26.20;77.71;100596.56;5032310;28;20119;-78
2021/06/24 06:26:29;;;;;;;18.17;9.70;;;;;;;26.36;77.63;100620.84;5032594;28;20047;-79
2021/06/24 06:28:55;;;;;;;20.73;9.77;;;;;;;26.35;78.49;100608.53;5033469;28;20111;-79
2021/06/24 06:31:22;;;;;;;20.13;10.00;;;;;;;26.54;76.36;100612.41;5033576;28;20052;-78
2021/06/24 06:33:48;;;;;;;17.73;9.48;;;;;;;26.70;74.73;100606.69;5033554;28;20029;-80
2021/06/24 06:36:14;;;;;;;22.33;8.88;;;;;;;26.69;73.20;100603.16;5033477;28;20021;-80
2021/06/24 06:38:39;;;;;;;15.90;9.30;;;;;;;26.72;73.65;100596.94;5033335;28;20037;-80
2021/06/24 06:41:05;;;;;;;15.95;9.50;;;;;;;26.79;73.96;100579.97;5033508;28;20032;-78
2021/06/24 06:43:30;;;;;;;21.17;9.52;;;;;;;27.01;73.71;100608.50;5033497;28;20103;-79
2021/06/24 06:45:56;;;;;;;17.05;9.27;;;;;;;27.16;74.44;100607.19;5032486;28;20022;-79
2021/06/24 06:48:21;;;;;;;16.77;9.32;;;;;;;27.04;72.83;100595.16;5033011;28;20510;-78
2021/06/24 06:50:47;;;;;;;21.08;8.90;;;;;;;27.05;72.27;100567.75;5033061;28;20022;-79
2021/06/24 06:53:12;;;;;;;14.27;8.70;;;;;;;27.39;70.93;100598.50;5031739;28;20025;-78
2021/06/24 06:55:39;;;;;;;19.52;9.52;;;;;;;27.37;73.22;100601.22;5033277;28;20074;-78
2021/06/24 06:58:05;;;;;;;19.45;8.65;;;;;;;27.35;73.45;100595.06;5033105;28;20032;-80
2021/06/24 07:00:31;;;;;;;17.48;9.02;;;;;;;27.49;70.09;100605.31;5032880;28;20048;-78
2021/06/24 07:02:58;;;;;;;16.50;9.20;;;;;;;27.52;70.68;100599.91;5033096;28;20025;-78
2021/06/24 07:05:24;;;;;;;16.00;8.98;;;;;;;27.43;70.07;100573.69;5032935;28;20527;-78
2021/06/24 07:07:49;;;;;;;15.13;8.10;;;;;;;27.66;70.80;100603.91;5032475;28;20018;-77
2021/06/24 07:10:15;;;;;;;18.73;9.55;;;;;;;27.72;68.65;100601.06;5033152;28;20046;-78
2021/06/24 07:12:40;;;;;;;19.08;8.77;;;;;;;27.59;69.53;100560.78;5032842;28;20546;-78
2021/06/24 07:15:06;;;;;;;16.15;7.72;;;;;;;27.79;68.77;100602.59;5032757;28;20459;-78
2021/06/24 07:17:32;;;;;;;17.40;8.88;;;;;;;27.94;67.97;100593.25;5032589;28;20083;-78
2021/06/24 07:19:58;;;;;;;16.85;8.35;;;;;;;27.90;68.71;100584.53;5032140;28;20021;-78
2021/06/24 07:22:24;;;;;;;18.08;8.65;;;;;;;27.78;68.22;100558.41;5032114;28;20486;-78
2021/06/24 07:24:49;;;;;;;15.13;8.63;;;;;;;28.06;68.71;100594.66;5032330;28;20506;-80
2021/06/24 07:27:15;;;;;;;17.48;8.52;;;;;;;28.07;67.46;100589.28;5029282;28;20014;-78
2021/06/24 07:29:40;;;;;;;13.80;7.82;;;;;;;28.20;65.40;100592.41;5032218;28;20196;-79
2021/06/24 07:32:06;;;;;;;14.40;8.50;;;;;;;28.22;66.26;100600.31;5031917;28;20013;-79
2021/06/24 07:34:32;;;;;;;22.30;9.32;;;;;;;27.82;69.80;100575.94;5032233;28;20022;-79
2021/06/24 07:36:57;;;;;;;13.15;8.90;;;;;;;27.96;70.45;100609.97;5031955;28;20017;-79
2021/06/24 07:39:23;;;;;;;18.67;9.10;;;;;;;27.88;70.21;100586.34;5023935;28;20057;-79
2021/06/24 07:41:49;;;;;;;17.17;9.25;;;;;;;28.06;68.87;100605.25;5023379;28;20436;-78
2021/06/24 07:44:16;;;;;;;15.63;9.52;;;;;;;27.95;70.41;100588.81;5016095;28;20044;-80
2021/06/24 07:46:41;;;;;;;16.73;9.35;;;;;;;28.00;69.09;100582.44;5027477;28;20032;-79
2021/06/24 07:49:07;;;;;;;15.98;9.77;;;;;;;28.16;69.28;100587.25;5031782;28;20395;-80
2021/06/24 07:51:34;;;;;;;16.33;8.32;;;;;;;28.15;68.44;100577.53;5030113;28;20048;-78
2021/06/24 07:53:59;;;;;;;20.98;9.40;;;;;;;28.44;66.79;100595.09;5026819;28;20029;-79
2021/06/24 07:56:25;;;;;;;15.20;8.05;;;;;;;28.59;66.19;100593.69;5031536;28;20043;-75
2021/06/24 07:58:52;;;;;;;18.55;8.57;;;;;;;28.62;71.20;100574.97;5031512;28;20022;-77
2021/06/24 08:01:18;;;;;;;18.60;8.70;;;;;;;28.58;65.13;100562.72;5031394;28;20486;-76
2021/06/24 08:03:44;;;;;;;17.58;8.88;;;;;;;28.78;64.69;100577.09;5031835;28;20029;-76
2021/06/24 08:06:09;;;;;;;18.75;9.30;;;;;;;29.00;65.67;100593.13;5031005;28;20051;-78
2021/06/24 08:08:35;;;;;;;17.55;9.35;;;;;;;28.81;65.85;100555.72;5031637;28;20391;-78
2021/06/24 08:11:00;;;;;;;15.95;9.02;;;;;;;29.06;65.05;100587.56;5030595;28;20132;-78
2021/06/24 08:13:27;;;;;;;14.45;8.70;;;;;;;29.25;63.64;100581.50;5029921;28;20029;-79
2021/06/24 08:15:54;;;;;;;15.40;9.93;;;;;;;29.36;68.72;100592.66;5031272;28;20198;-78
2021/06/24 08:18:20;;;;;;;15.02;8.45;;;;;;;29.40;63.36;100593.38;5031091;28;20029;-76
2021/06/24 08:20:47;;;;;;;18.88;8.70;;;;;;;29.36;66.47;100590.84;5031172;28;20021;-77
2021/06/24 08:23:13;;;;;;;18.83;9.25;;;;;;;29.42;65.00;100586.19;5031367;28;20044;-79
2021/06/24 08:25:40;;;;;;;13.75;8.13;;;;;;;29.30;61.60;100555.66;5031425;28;20061;-80
2021/06/24 08:28:06;;;;;;;16.92;8.90;;;;;;;29.58;61.43;100586.44;5031295;28;20028;-77
2021/06/24 08:30:32;;;;;;;14.85;8.63;;;;;;;29.72;61.77;100578.78;5030306;28;20036;-78
2021/06/24 08:32:58;;;;;;;14.50;8.98;;;;;;;29.78;60.71;100580.31;5031185;28;20056;-78
2021/06/24 08:35:23;;;;;;;16.70;8.50;;;;;;;30.12;65.04;100577.13;5031228;28;20485;-79
2021/06/24 08:37:49;;;;;;;18.05;9.30;;;;;;;30.08;64.00;100550.69;5013689;28;20379;-80
2021/06/24 08:40:15;;;;;;;17.27;8.60;;;;;;;30.23;59.44;100581.97;5013129;28;20057;-78
2021/06/24 08:42:42;;;;;;;19.67;8.48;;;;;;;30.28;59.69;100576.44;5030661;28;20123;-78
2021/06/24 08:45:11;;;;;;;16.10;7.88;;;;;;;30.31;57.47;100574.50;5030793;28;20021;-78
2021/06/24 08:47:36;;;;;;;;;;;;;;;30.37;57.06;100573.38;5029224;28;20033;-79
2021/06/24 08:50:04;;;;;;;19.35;7.90;;;;;;;30.43;55.89;100553.59;5030192;28;20278;-78
2021/06/24 08:52:29;;;;;;;17.77;8.63;;;;;;;30.28;58.22;100542.69;5030063;28;20025;-77
2021/06/24 08:54:55;;;;;;;18.50;8.52;;;;;;;30.40;59.31;100549.25;5030956;28;20021;-77
2021/06/24 08:57:20;;;;;;;16.02;8.10;;;;;;;30.47;58.62;100545.41;5031571;28;20021;-76
2021/06/24 08:59:47;;;;;;;14.27;8.38;;;;;;;30.58;57.84;100546.72;5031172;28;20013;-77
2021/06/24 09:02:14;;;;;;;16.13;8.18;;;;;;;30.53;58.19;100522.09;5030879;28;20022;-77
2021/06/24 09:04:49;;;;;;;12.95;8.18;;;;;;;30.83;56.60;100557.16;5030945;28;20021;-75
2021/06/24 09:07:21;;;;;;;16.73;7.90;;;;;;;30.91;57.52;100546.13;5031094;28;20048;-77
2021/06/24 09:09:55;;;;;;;16.83;7.55;;;;;;;30.99;54.44;100554.59;5031888;28;20046;-79
2021/06/24 09:12:22;;;;;;;17.95;8.55;;;;;;;31.02;56.00;100543.81;5031979;28;20056;-74
2021/06/24 09:15:00;;;;;;;17.23;7.75;;;;;;;31.26;59.47;100543.59;5001677;28;20043;-76
2021/06/24 09:17:35;;;;;;;20.05;9.07;;;;;;;31.46;54.74;100547.94;5034002;28;20375;-77
2021/06/24 09:20:04;;;;;;;15.48;7.95;;;;;;;31.59;54.16;100548.19;5032296;28;20032;-77
2021/06/24 09:22:30;;;;;;;19.80;8.88;;;;;;;31.52;55.94;100547.66;5033923;28;20143;-76
2021/06/24 09:24:55;;;;;;;18.58;8.05;;;;;;;31.61;53.38;100547.16;5032630;28;20134;-77
2021/06/24 09:27:29;;;;;;;17.67;8.27;;;;;;;31.65;54.50;100525.72;5033497;28;20017;-75
2021/06/24 09:30:08;;;;;;;19.02;8.15;;;;;;;31.87;53.07;100528.16;5033660;28;20056;-76
2021/06/24 09:32:37;;;;;;;;;;;;;;;32.03;56.05;100533.56;5033755;28;20040;-76
2021/06/24 09:35:07;;;;;;;16.60;7.40;;;;;;;32.15;53.83;100534.72;5016038;28;20328;-77
2021/06/24 09:38:07;;;;;;;20.77;8.65;;;;;;;32.29;55.82;100528.69;5032967;28;20068;-78
2021/06/24 09:40:50;;;;;;;18.60;8.18;;;;;;;32.32;53.95;100515.19;5033182;28;20032;-79
2021/06/24 09:43:31;;;;;;;12.05;7.05;;;;;;;32.04;49.81;100520.13;5031335;28;20079;-76
2021/06/24 09:46:12;;;;;;;20.80;8.20;;;;;;;32.10;49.64;100517.16;5030538;28;20072;-82
2021/06/24 09:48:40;;;;;;;18.30;7.47;;;;;;;32.22;51.45;100515.66;5031676;28;20047;-79
2021/06/24 09:51:07;;;;;;;15.82;7.30;;;;;;;32.28;52.05;100525.16;5032784;28;20553;-80
2021/06/24 09:53:32;;;;;;;18.60;7.68;;;;;;;32.38;49.46;100529.06;5030331;28;20034;-79
2021/06/24 09:55:58;;;;;;;18.65;7.82;;;;;;;32.58;50.08;100521.78;5033537;28;20368;-78
2021/06/24 09:58:23;;;;;;;15.88;7.10;;;;;;;32.19;48.12;100505.16;5033752;28;20021;-79
2021/06/24 10:00:53;;;;;;;16.27;6.88;;;;;;;32.35;48.79;100510.53;5033762;28;20027;-77
2021/06/24 10:03:20;;;;;;;14.57;7.53;;;;;;;32.25;48.56;100517.28;5033938;28;20017;-77
2021/06/24 10:05:48;;;;;;;17.52;7.28;;;;;;;32.13;48.83;100483.19;5033656;28;20026;-77
2021/06/24 10:08:14;;;;;;;14.30;7.80;;;;;;;32.27;49.06;100502.06;5030640;28;20060;-77
2021/06/24 10:10:43;;;;;;;14.35;8.15;;;;;;;32.05;49.73;100472.91;5014842;28;20048;-78
2021/06/24 10:13:10;;;;;;;15.52;7.70;;;;;;;32.45;49.45;100497.53;5032754;28;20451;-77
2021/06/24 10:15:38;;;;;;;17.38;7.85;;;;;;;32.48;48.74;100499.19;5033464;28;20075;-78
2021/06/24 10:18:04;;;;;;;17.63;8.05;;;;;;;32.69;49.26;100492.63;5033112;28;20028;-76
2021/06/24 10:20:32;;;;;;;24.10;8.40;;;;;;;32.96;48.65;100484.06;5032567;28;20048;-76
2021/06/24 10:23:07;;;;;;;21.20;8.25;;;;;;;33.15;47.47;100458.91;4981416;28;20041;-78
2021/06/24 10:25:35;;;;;;;20.20;8.65;;;;;;;33.56;47.81;100495.81;5028774;28;20028;-77
2021/06/24 10:28:01;;;;;;;18.07;8.57;;;;;;;33.69;46.90;100486.06;5031372;28;20025;-78
2021/06/24 10:30:27;;;;;;;42.40;11.38;;;;;;;33.79;47.89;100482.84;5032256;28;20475;-77
2021/06/24 10:33:08;;;;;;;16.63;8.40;;;;;;;34.08;46.81;100481.09;5032470;28;20049;-79
2021/06/24 10:35:36;;;;;;;22.25;8.38;;;;;;;34.24;45.16;100478.31;5029974;28;20017;-76
2021/06/24 10:38:03;;;;;;;17.63;8.32;;;;;;;34.16;44.45;100446.66;5031536;28;20017;-74
2021/06/24 10:40:37;;;;;;;17.15;7.68;;;;;;;34.39;44.12;100483.72;5032372;28;20024;-76
2021/06/24 10:43:13;;;;;;;17.98;7.78;;;;;;;34.50;48.83;100483.88;5032533;28;20036;-78
2021/06/24 10:45:41;;;;;;;17.58;7.75;;;;;;;34.53;46.08;100480.16;5014533;28;20036;-79
2021/06/24 10:48:28;;;;;;;19.45;7.60;;;;;;;34.58;44.92;100475.34;5032133;28;20108;-79
2021/06/24 10:51:06;;;;;;;18.95;7.10;;;;;;;34.80;44.13;100474.84;5031742;28;20084;-78
2021/06/24 10:53:47;;;;;;;183.38;15.02;;;;;;;34.94;43.76;100476.63;4979408;28;20044;-75
2021/06/24 10:56:34;;;;;;;21.52;7.93;;;;;;;35.03;43.22;100451.03;5031043;28;20040;-75
2021/06/24 10:59:23;;;;;;;18.98;7.47;;;;;;;35.33;45.31;100477.66;5030958;28;20036;-79
2021/06/24 11:01:49;;;;;;;17.08;7.40;;;;;;;35.39;41.93;100454.91;5014208;28;20036;-75
2021/06/24 11:04:30;;;;;;;20.13;7.13;;;;;;;35.36;41.52;100472.06;5031418;28;20022;-77
2021/06/24 11:06:59;;;;;;;20.73;8.38;;;;;;;35.05;47.00;100428.50;5030585;28;20448;-78
2021/06/24 11:09:25;;;;;;;15.00;6.47;;;;;;;35.12;41.11;100416.41;5035362;28;20037;-76
2021/06/24 11:11:51;;;;;;;18.50;8.00;;;;;;;35.38;42.00;100467.50;5031779;28;20507;-77